Time;durP1;ratioP1;P1;durP2;ratioP2;P2;SDS_P1;SDS_P2;PMS_P1;PMS_P2;Temp;Humidity;BMP_temperature;BMP_pressure;BME280_temperature;BME280_humidity;BME280_pressure;Samples;Min_cycle;Max_cycle;Signal;HPM_P1;HPM_P2
2023/09/13 00:00:49;;;;;;;3.08;2.78;;;28.50;45.80;;;;;;5087659;27;45456;-69
2023/09/13 00:03:16;;;;;;;3.13;2.72;;;28.40;45.90;;;;;;5086727;27;45464;-68
2023/09/13 00:05:43;;;;;;;3.97;2.90;;;28.40;45.90;;;;;;5087153;27;45354;-69
2023/09/13 00:08:10;;;;;;;3.33;2.88;;;28.40;46.00;;;;;;5087377;27;45316;-69
2023/09/13 00:10:37;;;;;;;3.20;2.90;;;28.40;46.00;;;;;;5087472;27;45503;-69
2023/09/13 00:13:04;;;;;;;2.75;2.55;;;28.40;46.20;;;;;;5086927;27;45260;-69
2023/09/13 00:15:32;;;;;;;3.60;3.00;;;28.40;46.30;;;;;;5087163;27;45256;-69
2023/09/13 00:17:59;;;;;;;3.00;2.80;;;28.40;46.20;;;;;;5087194;27;45376;-69
2023/09/13 00:20:27;;;;;;;4.90;2.90;;;28.30;46.20;;;;;;5087425;27;45389;-69
2023/09/13 00:22:54;;;;;;;4.00;2.85;;;28.30;46.30;;;;;;5086732;27;46840;-69
2023/09/13 00:25:21;;;;;;;3.05;2.70;;;28.30;46.10;;;;;;5086885;27;45410;-69
2023/09/13 00:27:48;;;;;;;3.30;3.00;;;28.30;46.30;;;;;;5087338;27;45286;-69
2023/09/13 00:30:15;;;;;;;3.00;2.70;;;28.30;46.30;;;;;;5086663;27;45427;-69
2023/09/13 00:32:43;;;;;;;4.38;3.00;;;28.20;46.20;;;;;;5086572;27;46369;-69
2023/09/13 00:35:10;;;;;;;2.85;2.53;;;28.30;46.30;;;;;;5086699;27;45240;-69
2023/09/13 00:37:36;;;;;;;3.20;2.90;;;28.30;46.30;;;;;;5086742;27;45392;-69
2023/09/13 00:40:05;;;;;;;3.28;2.97;;;28.20;46.30;;;;;;5087186;27;45336;-69
2023/09/13 00:42:32;;;;;;;3.13;2.70;;;28.20;46.30;;;;;;5086196;27;45625;-68
2023/09/13 00:44:58;;;;;;;4.10;2.53;;;28.20;46.40;;;;;;5086626;27;45311;-68
2023/09/13 00:47:25;;;;;;;3.28;2.97;;;28.10;46.30;;;;;;5086626;27;45310;-68
2023/09/13 00:49:54;;;;;;;2.67;2.47;;;28.20;46.50;;;;;;5086971;27;45619;-67
2023/09/13 00:52:20;;;;;;;3.13;2.83;;;28.10;46.40;;;;;;5086275;27;45374;-68
2023/09/13 00:54:47;;;;;;;2.95;2.58;;;28.10;46.40;;;;;;5086425;27;45405;-68
2023/09/13 00:57:14;;;;;;;2.95;2.63;;;28.10;46.60;;;;;;5086709;27;45296;-68
2023/09/13 00:59:41;;;;;;;2.90;2.60;;;28.10;46.50;;;;;;5086615;27;45474;-68
2023/09/13 01:02:08;;;;;;;2.45;2.25;;;28.00;46.50;;;;;;5086436;27;47285;-68
2023/09/13 01:04:35;;;;;;;2.60;2.40;;;28.10;46.70;;;;;;5086203;27;45467;-67
2023/09/13 01:07:03;;;;;;;2.22;2.03;;;28.00;46.70;;;;;;5086240;27;45409;-68
2023/09/13 01:09:30;;;;;;;2.42;2.22;;;28.00;46.70;;;;;;5086626;27;45307;-68
2023/09/13 01:11:57;;;;;;;2.85;2.65;;;28.00;46.80;;;;;;5086407;27;45359;-67
2023/09/13 01:14:23;;;;;;;4.55;2.20;;;28.00;46.80;;;;;;5085162;27;45578;-68
2023/09/13 01:16:53;;;;;;;2.88;2.67;;;28.00;46.80;;;;;;5085607;27;45342;-68
2023/09/13 01:19:38;;;;;;;3.00;2.70;;;28.00;46.80;;;;;;5086351;27;45358;-68
2023/09/13 01:22:18;;;;;;;3.75;2.70;;;28.00;46.80;;;;;;5085513;27;46397;-68
2023/09/13 01:25:04;;;;;;;3.80;2.58;;;27.90;46.80;;;;;;5085581;27;45519;-67
2023/09/13 01:27:39;;;;;;;4.32;2.70;;;27.90;46.80;;;;;;5086146;27;45383;-68
2023/09/13 01:30:09;;;;;;;3.45;2.90;;;27.90;47.40;;;;;;5086325;27;45270;-68
2023/09/13 01:32:35;;;;;;;2.70;2.50;;;27.90;46.90;;;;;;5085848;27;45638;-68
2023/09/13 01:35:02;;;;;;;2.85;2.50;;;27.90;46.90;;;;;;5085564;27;45282;-68
2023/09/13 01:37:30;;;;;;;3.00;2.50;;;27.90;47.00;;;;;;5085876;27;45337;-68
2023/09/13 01:39:57;;;;;;;3.05;2.28;;;27.90;47.10;;;;;;5086244;27;45367;-68
2023/09/13 01:42:24;;;;;;;3.45;2.63;;;27.80;47.00;;;;;;5085565;27;46361;-68
2023/09/13 01:44:51;;;;;;;3.13;2.58;;;27.80;47.00;;;;;;5085812;27;45284;-68
2023/09/13 01:47:19;;;;;;;2.63;2.42;;;27.80;47.10;;;;;;5085878;27;45288;-68
2023/09/13 01:49:46;;;;;;;2.40;2.20;;;27.80;47.00;;;;;;5085950;27;45316;-68
2023/09/13 01:52:13;;;;;;;2.60;2.40;;;27.80;47.10;;;;;;5085687;27;45318;-68
2023/09/13 01:54:40;;;;;;;3.13;2.20;;;27.80;47.20;;;;;;5085833;27;45241;-68
2023/09/13 01:57:06;;;;;;;2.83;2.38;;;27.70;47.10;;;;;;5085700;27;45310;-68
2023/09/13 01:59:34;;;;;;;2.75;2.28;;;27.70;47.20;;;;;;5086070;27;45390;-68
2023/09/13 02:02:00;;;;;;;2.25;2.10;;;27.70;47.10;;;;;;5085471;27;45462;-68
2023/09/13 02:04:32;;;;;;;2.58;2.38;;;27.70;47.20;;;;;;5085544;27;45305;-68
2023/09/13 02:06:59;;;;;;;2.70;2.33;;;27.70;47.30;;;;;;5085736;27;45444;-68
2023/09/13 02:09:26;;;;;;;2.50;2.30;;;27.70;47.30;;;;;;5085964;27;45365;-69
2023/09/13 02:11:53;;;;;;;2.58;2.38;;;27.70;47.30;;;;;;5085415;27;45507;-68
2023/09/13 02:14:20;;;;;;;2.78;2.33;;;27.60;47.20;;;;;;5085593;27;45264;-68
2023/09/13 02:16:46;;;;;;;2.10;1.90;;;27.60;47.30;;;;;;5085580;27;45232;-68
2023/09/13 02:19:13;;;;;;;2.38;2.17;;;27.60;47.30;;;;;;5085459;27;45411;-69
2023/09/13 02:21:42;;;;;;;2.63;2.35;;;27.60;47.40;;;;;;5085278;27;46369;-69
2023/09/13 02:24:09;;;;;;;2.40;2.20;;;27.60;47.40;;;;;;5085430;27;45465;-69
2023/09/13 02:26:36;;;;;;;1.90;1.80;;;27.60;47.40;;;;;;5086894;27;45137;-69
2023/09/13 02:29:03;;;;;;;2.40;2.20;;;27.60;47.40;;;;;;5089165;27;45290;-68
2023/09/13 02:31:30;;;;;;;2.40;2.20;;;27.50;47.40;;;;;;5086496;27;46245;-69
2023/09/13 02:33:57;;;;;;;2.83;2.20;;;27.50;46.90;;;;;;5089004;27;45277;-69
2023/09/13 02:36:24;;;;;;;2.20;1.98;;;27.50;47.30;;;;;;5088843;27;45393;-69
2023/09/13 02:38:53;;;;;;;2.25;2.05;;;27.50;47.40;;;;;;5088921;27;45237;-69
2023/09/13 02:41:20;;;;;;;2.30;2.03;;;27.50;47.90;;;;;;5088023;27;46481;-69
2023/09/13 02:43:46;;;;;;;2.70;2.38;;;27.50;47.30;;;;;;5088362;27;45363;-69
2023/09/13 02:46:13;;;;;;;2.38;1.95;;;27.50;47.40;;;;;;5088780;27;45327;-69
2023/09/13 02:48:40;;;;;;;2.20;2.00;;;27.50;47.40;;;;;;5088698;27;45280;-69
2023/09/13 02:51:12;;;;;;;2.40;2.10;;;27.50;47.40;;;;;;5088167;27;46367;-69
2023/09/13 02:53:39;;;;;;;2.25;2.05;;;27.50;47.40;;;;;;5085983;27;45480;-69
2023/09/13 02:56:07;;;;;;;2.38;1.90;;;27.50;47.50;;;;;;5088409;27;45285;-69
2023/09/13 02:58:34;;;;;;;2.10;1.90;;;27.40;47.50;;;;;;5088482;27;45107;-68
2023/09/13 03:01:03;;;;;;;2.47;2.28;;;27.40;47.60;;;;;;5088273;27;46883;-69
2023/09/13 03:03:32;;;;;;;3.40;2.35;;;27.40;47.60;;;;;;5088127;27;45357;-68
2023/09/13 03:06:07;;;;;;;2.28;2.15;;;27.40;47.60;;;;;;5088192;27;45328;-68
2023/09/13 03:08:34;;;;;;;2.22;1.90;;;27.40;47.70;;;;;;5088260;27;45245;-68
2023/09/13 03:11:10;;;;;;;2.15;1.95;;;27.40;47.60;;;;;;5087582;27;46395;-68
2023/09/13 03:13:38;;;;;;;2.30;2.10;;;27.40;47.70;;;;;;5087430;27;45393;-68
2023/09/13 03:16:12;;;;;;;2.40;2.20;;;27.30;47.60;;;;;;5087993;27;45352;-68
2023/09/13 03:18:39;;;;;;;2.30;2.10;;;27.30;47.70;;;;;;5088045;27;45564;-68
2023/09/13 03:21:07;;;;;;;2.00;1.90;;;27.30;47.70;;;;;;5087767;27;45292;-69
2023/09/13 03:23:34;;;;;;;2.53;2.22;;;27.30;47.70;;;;;;5087845;27;45280;-68
2023/09/13 03:26:01;;;;;;;2.85;1.98;;;27.30;47.80;;;;;;5088148;27;45356;-68
2023/09/13 03:28:29;;;;;;;2.28;2.08;;;27.30;47.80;;;;;;5088031;27;45468;-68
2023/09/13 03:30:56;;;;;;;2.15;1.95;;;27.30;47.80;;;;;;5087593;27;45492;-68
2023/09/13 03:33:23;;;;;;;2.15;1.95;;;27.30;47.80;;;;;;5087383;27;45297;-68
2023/09/13 03:35:52;;;;;;;3.03;1.88;;;27.30;47.80;;;;;;5087684;27;45373;-68
2023/09/13 03:38:19;;;;;;;2.28;2.08;;;27.20;47.70;;;;;;5087166;27;45440;-68
2023/09/13 03:40:46;;;;;;;1.92;1.80;;;27.20;47.80;;;;;;5087379;27;48644;-68
2023/09/13 03:43:13;;;;;;;2.38;2.17;;;27.20;47.80;;;;;;5087223;27;45369;-68
2023/09/13 03:45:41;;;;;;;1.73;1.63;;;27.20;47.90;;;;;;5087581;27;45268;-68
2023/09/13 03:48:08;;;;;;;2.40;2.20;;;27.20;47.90;;;;;;5087620;27;45457;-68
2023/09/13 03:50:34;;;;;;;3.08;2.17;;;27.20;47.90;;;;;;5087101;27;46807;-68
2023/09/13 03:53:01;;;;;;;3.03;2.17;;;27.10;47.90;;;;;;5087212;27;45335;-68
2023/09/13 03:55:29;;;;;;;2.10;2.00;;;27.20;48.00;;;;;;5087447;27;45302;-68
2023/09/13 03:57:56;;;;;;;1.92;1.83;;;27.20;48.00;;;;;;5087303;27;45466;-68
2023/09/13 04:00:23;;;;;;;1.80;1.70;;;27.10;47.90;;;;;;5087291;27;45454;-68
2023/09/13 04:02:52;;;;;;;2.00;1.88;;;27.10;48.00;;;;;;5086685;27;45410;-68
2023/09/13 04:05:18;;;;;;;1.85;1.75;;;27.10;48.00;;;;;;5087354;28;45369;-68
2023/09/13 04:07:46;;;;;;;2.20;2.00;;;27.10;47.90;;;;;;5087250;27;45298;-68
2023/09/13 04:10:12;;;;;;;1.88;1.77;;;27.10;48.00;;;;;;5086946;27;45243;-68
2023/09/13 04:12:39;;;;;;;2.38;1.80;;;27.10;48.00;;;;;;5086863;27;45275;-68
2023/09/13 04:15:08;;;;;;;2.55;2.08;;;27.10;48.00;;;;;;5086847;27;45294;-68
2023/09/13 04:17:34;;;;;;;1.80;1.70;;;27.10;48.00;;;;;;5087021;27;45411;-68
2023/09/13 04:20:03;;;;;;;2.05;1.90;;;27.00;48.10;;;;;;5086997;27;47376;-68
2023/09/13 04:22:31;;;;;;;2.28;2.10;;;27.00;48.10;;;;;;5086833;27;45313;-68
2023/09/13 04:24:58;;;;;;;2.03;1.88;;;27.00;48.10;;;;;;5087001;27;45303;-68
2023/09/13 04:27:25;;;;;;;2.30;2.10;;;27.00;48.10;;;;;;5087008;27;45256;-68
2023/09/13 04:29:54;;;;;;;2.03;1.70;;;27.00;48.30;;;;;;5086569;27;47346;-68
2023/09/13 04:32:21;;;;;;;1.90;1.80;;;27.00;48.20;;;;;;5086680;27;45331;-68
2023/09/13 04:34:48;;;;;;;2.95;1.70;;;26.90;48.20;;;;;;5086485;27;45328;-68
2023/09/13 04:37:16;;;;;;;2.05;1.95;;;27.00;48.20;;;;;;5086844;27;45267;-68
2023/09/13 04:39:43;;;;;;;2.15;2.00;;;26.90;48.10;;;;;;5086228;27;46682;-68
2023/09/13 04:42:10;;;;;;;1.90;1.80;;;26.90;48.10;;;;;;5086018;27;45306;-69
2023/09/13 04:44:37;;;;;;;2.08;1.90;;;26.90;48.10;;;;;;5086447;27;45216;-68
2023/09/13 04:47:04;;;;;;;2.95;2.00;;;26.90;48.10;;;;;;5086517;27;45509;-68
2023/09/13 04:49:31;;;;;;;2.00;1.80;;;26.90;48.10;;;;;;5084878;27;46351;-68
2023/09/13 04:51:59;;;;;;;4.35;1.90;;;26.90;48.10;;;;;;5086326;27;45343;-68
2023/09/13 04:54:28;;;;;;;2.20;2.00;;;26.90;48.10;;;;;;5086173;27;45383;-68
2023/09/13 04:56:54;;;;;;;2.22;2.03;;;26.90;48.10;;;;;;5086199;27;45376;-68
2023/09/13 04:59:25;;;;;;;1.90;1.80;;;26.90;48.20;;;;;;5086213;27;45387;-68
2023/09/13 05:01:51;;;;;;;2.35;1.65;;;26.80;48.20;;;;;;5086007;27;45280;-69
2023/09/13 05:04:19;;;;;;;2.30;1.85;;;26.80;48.10;;;;;;5086156;27;45529;-68
2023/09/13 05:06:45;;;;;;;1.80;1.70;;;26.80;48.20;;;;;;5086327;27;45245;-68
2023/09/13 05:09:12;;;;;;;2.35;1.70;;;26.80;48.20;;;;;;5085751;27;45469;-68
2023/09/13 05:11:40;;;;;;;2.03;1.80;;;26.80;48.20;;;;;;5085975;27;45348;-68
2023/09/13 05:14:11;;;;;;;2.13;1.77;;;26.80;48.30;;;;;;5085809;27;45277;-68
2023/09/13 05:16:38;;;;;;;2.20;2.00;;;26.80;48.30;;;;;;5086190;27;45409;-68
2023/09/13 05:19:04;;;;;;;2.25;1.75;;;26.80;48.30;;;;;;5085795;27;46406;-68
2023/09/13 05:21:31;;;;;;;1.73;1.52;;;26.80;48.30;;;;;;5085824;27;45369;-68
2023/09/13 05:23:58;;;;;;;2.30;1.92;;;26.70;48.30;;;;;;5085952;27;45268;-68
2023/09/13 05:26:25;;;;;;;1.90;1.80;;;26.70;48.20;;;;;;5086021;27;45314;-68
2023/09/13 05:28:53;;;;;;;1.88;1.60;;;26.70;48.30;;;;;;5085578;27;45370;-68
2023/09/13 05:31:20;;;;;;;2.15;1.80;;;26.70;48.30;;;;;;5085633;27;45481;-68
2023/09/13 05:33:47;;;;;;;1.65;1.55;;;26.70;48.30;;;;;;5085796;27;45462;-68
2023/09/13 05:36:14;;;;;;;1.70;1.60;;;26.70;48.30;;;;;;5085820;27;45326;-68
2023/09/13 05:38:41;;;;;;;1.95;1.80;;;26.70;48.30;;;;;;5085373;27;45314;-68
2023/09/13 05:41:08;;;;;;;2.75;1.83;;;26.70;49.00;;;;;;5085524;27;45380;-68
2023/09/13 05:43:35;;;;;;;1.60;1.50;;;26.70;48.40;;;;;;5085337;27;45500;-68
2023/09/13 05:46:03;;;;;;;2.83;1.90;;;26.70;48.30;;;;;;5085690;27;45414;-68
2023/09/13 05:48:30;;;;;;;1.70;1.60;;;26.70;48.40;;;;;;5085304;27;45279;-68
2023/09/13 05:50:57;;;;;;;1.98;1.88;;;26.60;48.30;;;;;;5085447;27;45607;-68
2023/09/13 05:53:24;;;;;;;2.17;1.60;;;26.60;48.30;;;;;;5085419;27;45457;-68
2023/09/13 05:55:51;;;;;;;1.85;1.73;;;26.60;48.30;;;;;;5085655;27;45417;-68
2023/09/13 05:58:18;;;;;;;2.05;1.60;;;26.60;48.30;;;;;;5085113;27;45305;-68
2023/09/13 06:00:47;;;;;;;3.15;2.00;;;26.60;48.30;;;;;;5085459;27;45123;-69
2023/09/13 06:03:16;;;;;;;1.67;1.58;;;26.60;48.30;;;;;;5089031;27;45427;-67
2023/09/13 06:05:43;;;;;;;1.67;1.58;;;26.60;48.30;;;;;;5089141;27;45482;-68
2023/09/13 06:08:10;;;;;;;2.15;1.77;;;26.60;48.40;;;;;;5088388;27;46404;-68
2023/09/13 06:10:37;;;;;;;1.67;1.58;;;26.60;48.40;;;;;;5088772;27;45295;-68
2023/09/13 06:13:04;;;;;;;1.85;1.70;;;26.60;48.40;;;;;;5088811;27;45390;-68
2023/09/13 06:15:31;;;;;;;2.17;1.70;;;26.60;48.40;;;;;;5088770;27;45369;-68
2023/09/13 06:17:57;;;;;;;1.75;1.30;;;26.60;48.40;;;;;;5088426;27;46454;-68
2023/09/13 06:20:25;;;;;;;1.90;1.80;;;26.60;48.40;;;;;;5088464;27;45268;-68
2023/09/13 06:22:54;;;;;;;2.20;1.90;;;26.60;48.40;;;;;;5088521;27;45303;-68
2023/09/13 06:25:21;;;;;;;2.75;1.75;;;26.60;48.40;;;;;;5088788;27;45480;-68
2023/09/13 06:27:48;;;;;;;1.60;1.50;;;26.50;48.40;;;;;;5088678;27;45256;-68
2023/09/13 06:30:15;;;;;;;1.63;1.52;;;26.50;48.30;;;;;;5088475;27;45248;-69
2023/09/13 06:32:41;;;;;;;2.03;1.60;;;26.50;48.40;;;;;;5088787;27;45259;-68
2023/09/13 06:35:10;;;;;;;1.48;1.38;;;26.50;48.40;;;;;;5088375;27;45293;-68
2023/09/13 06:37:38;;;;;;;3.45;1.88;;;26.50;48.30;;;;;;5088046;27;45308;-68
2023/09/13 06:40:06;;;;;;;1.83;1.63;;;26.50;48.40;;;;;;5088449;27;45291;-68
2023/09/13 06:42:33;;;;;;;1.60;1.48;;;26.50;48.40;;;;;;5087956;27;45457;-68
2023/09/13 06:45:02;;;;;;;1.58;1.48;;;26.50;48.40;;;;;;5088389;27;45365;-68
2023/09/13 06:47:30;;;;;;;1.95;1.75;;;26.50;48.40;;;;;;5087866;27;46726;-68
2023/09/13 06:49:57;;;;;;;1.50;1.40;;;26.50;48.40;;;;;;5088001;27;45235;-68
2023/09/13 06:52:24;;;;;;;1.48;1.38;;;26.50;48.40;;;;;;5088154;27;45295;-68
2023/09/13 06:54:52;;;;;;;1.58;1.48;;;26.50;48.40;;;;;;5088284;27;45354;-68
2023/09/13 06:57:19;;;;;;;1.52;1.42;;;26.50;48.40;;;;;;5087761;27;45461;-67
2023/09/13 06:59:46;;;;;;;2.08;1.67;;;26.50;48.40;;;;;;5087812;27;45321;-68
2023/09/13 07:02:12;;;;;;;1.55;1.40;;;26.50;48.50;;;;;;5088084;27;45318;-68
2023/09/13 07:04:40;;;;;;;1.60;1.50;;;26.50;48.50;;;;;;5088114;27;45354;-68
2023/09/13 07:07:07;;;;;;;1.60;1.50;;;26.50;48.50;;;;;;5087770;27;45279;-67
2023/09/13 07:09:34;;;;;;;1.83;1.60;;;26.50;48.50;;;;;;5087834;27;45321;-68
2023/09/13 07:12:02;;;;;;;2.20;1.73;;;26.50;49.10;;;;;;5087522;27;45291;-68
2023/09/13 07:14:29;;;;;;;1.48;1.38;;;26.50;48.50;;;;;;5087122;27;45409;-68
2023/09/13 07:16:56;;;;;;;2.17;1.70;;;26.50;48.50;;;;;;5087455;27;46421;-68
2023/09/13 07:19:22;;;;;;;1.55;1.45;;;26.50;48.50;;;;;;5087725;27;45344;-68
2023/09/13 07:21:50;;;;;;;2.25;1.60;;;26.50;48.50;;;;;;5087716;27;45390;-68
2023/09/13 07:24:17;;;;;;;2.83;1.50;;;26.50;48.50;;;;;;5087681;27;45353;-68
2023/09/13 07:26:44;;;;;;;1.67;1.58;;;26.50;48.50;;;;;;5087371;27;46634;-68
2023/09/13 07:29:12;;;;;;;1.63;1.40;;;26.50;48.50;;;;;;5087596;27;45415;-68
2023/09/13 07:31:39;;;;;;;1.70;1.60;;;26.50;48.50;;;;;;5087592;27;45286;-67
2023/09/13 07:34:06;;;;;;;1.67;1.58;;;26.50;48.50;;;;;;5087669;27;45377;-67
2023/09/13 07:36:32;;;;;;;1.77;1.55;;;26.50;48.40;;;;;;5087244;27;47286;-68
2023/09/13 07:39:00;;;;;;;1.63;1.52;;;26.60;48.60;;;;;;5087314;27;45328;-67
2023/09/13 07:41:27;;;;;;;1.70;1.60;;;26.50;48.50;;;;;;5087328;27;45399;-67
2023/09/13 07:43:54;;;;;;;3.13;1.60;;;26.60;48.60;;;;;;5087481;27;45455;-67
2023/09/13 07:46:22;;;;;;;4.18;1.60;;;26.60;48.60;;;;;;5087127;27;45281;-67
2023/09/13 07:48:49;;;;;;;2.92;1.50;;;26.60;48.50;;;;;;5087183;27;45320;-67
2023/09/13 07:51:16;;;;;;;4.15;1.67;;;26.60;48.50;;;;;;5087089;27;45394;-67
2023/09/13 07:53:43;;;;;;;2.83;1.58;;;26.60;48.50;;;;;;5087236;27;45300;-67
2023/09/13 07:56:10;;;;;;;1.63;1.52;;;26.60;48.60;;;;;;5086810;27;46385;-67
2023/09/13 07:58:36;;;;;;;2.42;1.60;;;26.60;48.50;;;;;;5086973;27;45284;-66
2023/09/13 08:01:03;;;;;;;1.70;1.60;;;26.60;48.40;;;;;;5086957;27;45264;-67
2023/09/13 08:03:31;;;;;;;2.45;1.50;;;26.70;48.50;;;;;;5087159;27;45360;-67
2023/09/13 08:05:59;;;;;;;1.75;1.65;;;26.60;48.40;;;;;;5087006;27;47269;-67
2023/09/13 08:08:25;;;;;;;1.40;1.30;;;26.70;48.40;;;;;;5086810;27;45302;-67
2023/09/13 08:10:52;;;;;;;3.85;1.80;;;26.70;49.00;;;;;;5086819;27;45302;-67
2023/09/13 08:13:21;;;;;;;1.58;1.48;;;26.70;48.40;;;;;;5087156;27;45320;-66
2023/09/13 08:15:47;;;;;;;1.75;1.65;;;26.70;48.40;;;;;;5086377;27;46397;-66
2023/09/13 08:18:14;;;;;;;1.45;1.38;;;26.70;48.40;;;;;;5086496;27;45325;-67
2023/09/13 08:20:42;;;;;;;1.58;1.48;;;26.70;48.40;;;;;;5086875;27;45302;-66
2023/09/13 08:23:09;;;;;;;1.60;1.50;;;26.70;48.40;;;;;;5086819;27;45470;-66
2023/09/13 08:25:36;;;;;;;1.70;1.45;;;26.70;48.40;;;;;;5086184;27;45328;-66
2023/09/13 08:28:03;;;;;;;1.60;1.50;;;26.80;48.40;;;;;;5086409;27;45382;-67
2023/09/13 08:30:30;;;;;;;2.03;1.45;;;26.80;48.50;;;;;;5086595;27;45283;-66
2023/09/13 08:32:57;;;;;;;1.55;1.45;;;26.70;48.40;;;;;;5086550;27;45363;-67
2023/09/13 08:35:24;;;;;;;1.40;1.27;;;26.80;48.40;;;;;;5086120;27;45515;-66
2023/09/13 08:37:52;;;;;;;1.30;1.20;;;26.80;48.40;;;;;;5086023;27;45404;-66
2023/09/13 08:40:19;;;;;;;1.73;1.30;;;26.80;48.40;;;;;;5086308;27;45351;-66
2023/09/13 08:42:46;;;;;;;1.70;1.60;;;26.80;48.30;;;;;;5086449;27;45277;-66
2023/09/13 08:45:13;;;;;;;1.65;1.50;;;26.90;48.30;;;;;;5085991;27;46396;-66
2023/09/13 08:47:42;;;;;;;1.52;1.42;;;26.90;48.20;;;;;;5085901;27;45342;-67
2023/09/13 08:50:09;;;;;;;1.27;1.23;;;26.90;48.20;;;;;;5086239;27;45328;-66
2023/09/13 08:52:36;;;;;;;1.35;1.30;;;27.00;48.30;;;;;;5086330;27;45427;-66
2023/09/13 08:55:06;;;;;;;1.67;1.50;;;26.90;48.10;;;;;;5085893;27;46335;-66
2023/09/13 08:57:33;;;;;;;1.50;1.40;;;27.00;48.10;;;;;;5085879;27;45360;-67
2023/09/13 09:00:00;;;;;;;2.00;1.40;;;27.00;48.10;;;;;;5086076;27;45264;-67
2023/09/13 09:02:27;;;;;;;1.50;1.40;;;27.00;48.10;;;;;;5086140;27;45416;-67
2023/09/13 09:04:53;;;;;;;1.42;1.33;;;27.10;48.10;;;;;;5085928;27;47373;-66
2023/09/13 09:07:21;;;;;;;1.40;1.30;;;27.10;48.00;;;;;;5085978;27;45412;-67
2023/09/13 09:09:48;;;;;;;2.33;1.50;;;27.10;47.90;;;;;;5085987;27;45399;-67
2023/09/13 09:12:17;;;;;;;0.93;0.93;;;27.10;47.90;;;;;;5086096;27;45322;-67
2023/09/13 09:14:45;;;;;;;1.50;1.40;;;27.10;47.80;;;;;;5085845;27;45402;-67
2023/09/13 09:17:11;;;;;;;2.33;1.77;;;27.20;47.90;;;;;;5085706;27;45339;-67
2023/09/13 09:19:38;;;;;;;1.92;1.50;;;27.20;47.80;;;;;;5085907;27;45330;-67
2023/09/13 09:22:05;;;;;;;1.30;1.20;;;27.20;47.70;;;;;;5086043;27;45323;-67
2023/09/13 09:24:32;;;;;;;1.30;1.20;;;27.20;47.60;;;;;;5085390;27;45327;-67
2023/09/13 09:26:59;;;;;;;1.42;1.30;;;27.30;47.60;;;;;;5085415;27;45346;-67
2023/09/13 09:29:37;;;;;;;1.35;1.25;;;27.30;47.70;;;;;;5085768;27;45433;-67
2023/09/13 09:32:07;;;;;;;1.63;1.52;;;27.30;47.70;;;;;;5085956;27;45567;-67
2023/09/13 09:34:35;;;;;;;1.17;1.10;;;27.30;47.70;;;;;;5085522;27;47612;-67
2023/09/13 09:37:03;;;;;;;1.20;1.20;;;27.40;47.70;;;;;;5087738;27;45430;-67
2023/09/13 09:39:30;;;;;;;1.73;1.63;;;27.40;47.70;;;;;;5089196;27;45405;-67
2023/09/13 09:41:59;;;;;;;1.20;1.20;;;27.40;47.80;;;;;;5089205;27;45621;-67
2023/09/13 09:44:28;;;;;;;1.35;1.25;;;27.40;47.70;;;;;;5089077;27;45410;-67
2023/09/13 09:46:56;;;;;;;1.10;1.10;;;27.40;47.80;;;;;;5088964;27;45394;-67
2023/09/13 09:49:23;;;;;;;1.45;1.20;;;27.40;47.80;;;;;;5089330;27;45323;-67
2023/09/13 09:51:50;;;;;;;1.50;1.40;;;27.50;47.80;;;;;;5089440;27;45403;-67
2023/09/13 09:54:16;;;;;;;1.42;1.30;;;27.50;47.80;;;;;;5089135;27;45401;-67
2023/09/13 09:56:43;;;;;;;1.23;1.20;;;27.50;47.80;;;;;;5088703;27;45422;-67
2023/09/13 09:59:10;;;;;;;1.52;1.42;;;27.50;47.80;;;;;;5089134;27;44657;-67
2023/09/13 10:01:38;;;;;;;1.13;1.13;;;27.50;47.80;;;;;;5089178;27;45516;-67
2023/09/13 10:04:09;;;;;;;1.83;1.42;;;27.50;48.40;;;;;;5088717;27;46946;-67
2023/09/13 10:06:36;;;;;;;1.60;1.50;;;27.50;47.70;;;;;;5088638;27;45304;-67
2023/09/13 10:09:05;;;;;;;3.72;1.50;;;27.50;47.80;;;;;;5086248;27;45320;-67
2023/09/13 10:11:31;;;;;;;1.65;1.30;;;27.50;47.90;;;;;;5088946;27;45351;-67
2023/09/13 10:13:58;;;;;;;1.63;1.27;;;27.50;48.00;;;;;;5088403;27;46353;-67
2023/09/13 10:16:26;;;;;;;1.50;1.40;;;27.50;48.10;;;;;;5088595;27;45284;-67
2023/09/13 10:18:54;;;;;;;1.48;1.38;;;27.50;48.20;;;;;;5088657;27;45330;-68
2023/09/13 10:21:24;;;;;;;1.42;1.30;;;27.50;48.40;;;;;;5088951;27;45362;-67
2023/09/13 10:23:53;;;;;;;1.50;1.20;;;27.50;48.40;;;;;;5088464;27;46619;-68
2023/09/13 10:26:20;;;;;;;1.35;1.20;;;27.50;48.40;;;;;;5088613;27;45358;-69
2023/09/13 10:28:49;;;;;;;1.20;1.20;;;27.40;48.40;;;;;;5089008;27;45396;-69
2023/09/13 10:31:20;;;;;;;1.23;1.13;;;27.40;48.50;;;;;;5089064;27;45236;-68
2023/09/13 10:33:52;;;;;;;1.27;1.20;;;27.40;48.60;;;;;;5088606;27;45401;-69
2023/09/13 10:36:27;;;;;;;1.63;1.30;;;27.50;48.60;;;;;;5088693;27;45342;-68
2023/09/13 10:39:00;;;;;;;1.33;1.23;;;27.50;48.60;;;;;;5088734;27;45191;-68
2023/09/13 10:41:27;;;;;;;1.58;1.10;;;27.50;48.60;;;;;;5088610;27;45522;-69
2023/09/13 10:43:54;;;;;;;1.30;1.20;;;27.50;48.50;;;;;;5088470;27;45436;-68
2023/09/13 10:46:21;;;;;;;1.23;1.10;;;27.50;48.60;;;;;;5088534;27;45398;-68
2023/09/13 10:48:48;;;;;;;1.20;1.10;;;27.50;48.60;;;;;;5088592;27;45370;-68
2023/09/13 10:51:16;;;;;;;1.00;1.00;;;27.50;49.20;;;;;;5088722;27;45423;-68
2023/09/13 10:53:45;;;;;;;3.13;1.30;;;27.50;48.70;;;;;;5088222;27;45259;-68
2023/09/13 10:56:12;;;;;;;1.30;1.13;;;27.50;48.50;;;;;;5088221;27;45385;-68
2023/09/13 10:58:39;;;;;;;1.45;1.00;;;27.60;48.60;;;;;;5088618;27;45376;-69
2023/09/13 11:01:06;;;;;;;2.42;1.48;;;27.60;48.60;;;;;;5088595;27;45414;-68
2023/09/13 11:03:33;;;;;;;2.00;1.23;;;27.60;48.50;;;;;;5088083;27;46372;-68
2023/09/13 11:06:00;;;;;;;1.50;1.27;;;27.70;48.40;;;;;;5088114;27;45322;-68
2023/09/13 11:08:30;;;;;;;1.50;1.40;;;27.70;48.30;;;;;;5088210;27;45425;-68
2023/09/13 11:11:07;;;;;;;1.27;1.17;;;27.80;48.20;;;;;;5088470;27;45252;-67
2023/09/13 11:13:34;;;;;;;1.13;1.10;;;27.80;48.20;;;;;;5087712;27;45578;-68
2023/09/13 11:16:03;;;;;;;1.50;1.40;;;27.80;48.00;;;;;;5087424;27;45280;-67
2023/09/13 11:18:30;;;;;;;2.28;1.40;;;27.80;48.00;;;;;;5087613;28;45382;-68
2023/09/13 11:20:57;;;;;;;1.85;1.40;;;27.80;48.00;;;;;;5087770;27;45265;-69
2023/09/13 11:23:24;;;;;;;2.45;1.30;;;27.80;47.80;;;;;;5086994;27;46539;-68
2023/09/13 11:25:52;;;;;;;1.05;0.95;;;27.80;48.30;;;;;;5084407;27;45464;-68
2023/09/13 11:28:32;;;;;;;4.53;1.33;;;27.80;48.20;;;;;;5087098;27;45501;-68
2023/09/13 11:31:00;;;;;;;1.75;1.17;;;27.80;48.10;;;;;;5087818;27;45417;-68
2023/09/13 11:33:27;;;;;;;2.35;1.55;;;27.80;48.50;;;;;;5087508;27;46943;-68
2023/09/13 11:35:55;;;;;;;2.08;1.30;;;27.70;48.60;;;;;;5087439;27;45331;-68
2023/09/13 11:38:22;;;;;;;1.58;1.30;;;27.70;48.40;;;;;;5087596;27;45287;-68
2023/09/13 11:40:49;;;;;;;1.02;0.98;;;27.70;48.20;;;;;;5087609;27;45466;-68
2023/09/13 11:43:21;;;;;;;1.40;1.20;;;27.70;48.40;;;;;;5087151;27;47575;-68
2023/09/13 11:45:49;;;;;;;4.30;1.33;;;27.70;48.60;;;;;;5087134;27;45330;-68
2023/09/13 11:48:20;;;;;;;1.60;1.50;;;27.60;48.80;;;;;;5087396;27;45412;-68
2023/09/13 11:50:50;;;;;;;9.32;1.70;;;27.60;48.90;;;;;;5087420;27;45265;-67
2023/09/13 11:53:20;;;;;;;2.00;1.33;;;27.60;48.90;;;;;;5087219;27;46427;-68
2023/09/13 11:55:50;;;;;;;3.22;1.42;;;27.60;49.20;;;;;;5086933;27;45250;-68
2023/09/13 11:58:17;;;;;;;2.75;1.95;;;27.60;48.90;;;;;;5087096;27;45408;-67
2023/09/13 12:00:44;;;;;;;2.80;1.38;;;27.50;48.80;;;;;;5087022;27;45416;-68
2023/09/13 12:03:17;;;;;;;2.10;1.50;;;27.50;49.00;;;;;;5086650;27;45640;-68
2023/09/13 12:05:43;;;;;;;2.95;1.23;;;27.50;49.20;;;;;;5087323;27;45358;-70
2023/09/13 12:08:21;;;;;;;1.88;1.25;;;27.50;49.30;;;;;;5087490;27;45390;-70
2023/09/13 12:10:49;;;;;;;5.20;1.38;;;27.40;49.20;;;;;;5087763;27;45494;-70
2023/09/13 12:13:16;;;;;;;1.58;1.20;;;27.40;49.90;;;;;;5086786;27;45281;-70
2023/09/13 12:15:59;;;;;;;1.63;1.52;;;27.40;49.80;;;;;;5087038;27;45363;-69
2023/09/13 12:18:28;;;;;;;1.45;1.33;;;27.40;49.80;;;;;;5086846;27;45262;-68
2023/09/13 12:20:57;;;;;;;1.50;1.33;;;27.30;49.90;;;;;;5087029;27;45307;-70
2023/09/13 12:23:23;;;;;;;3.72;1.20;;;27.30;50.30;;;;;;5087079;27;45245;-70
2023/09/13 12:25:51;;;;;;;3.58;1.45;;;27.30;50.30;;;;;;5087057;27;45273;-70
2023/09/13 12:28:28;;;;;;;1.60;1.50;;;27.30;50.50;;;;;;5087173;27;45405;-70
2023/09/13 12:30:55;;;;;;;2.55;1.70;;;27.30;50.70;;;;;;5087294;27;45416;-70
2023/09/13 12:33:23;;;;;;;3.13;2.38;;;27.30;50.90;;;;;;5086933;27;46399;-70
2023/09/13 12:35:51;;;;;;;5.35;2.30;;;27.30;50.90;;;;;;5087000;27;45213;-71
2023/09/13 12:38:19;;;;;;;2.17;1.98;;;27.30;50.90;;;;;;5086954;27;45650;-70
2023/09/13 12:40:52;;;;;;;4.10;2.38;;;27.30;50.90;;;;;;5086961;27;45382;-70
2023/09/13 12:43:20;;;;;;;4.05;2.72;;;27.20;50.70;;;;;;5086354;27;46378;-70
2023/09/13 12:45:47;;;;;;;4.57;2.50;;;27.20;51.00;;;;;;5086774;27;45458;-69
2023/09/13 12:48:14;;;;;;;4.15;2.85;;;27.20;51.10;;;;;;5086803;27;45334;-70
2023/09/13 12:50:41;;;;;;;4.43;2.97;;;27.20;51.50;;;;;;5087118;27;45185;-70